Allenville, Illinois
Current Conditions -  °F | °C
As of 5:53 AM on Saturday 01 Nov 2014 (Local Time) from KMTO Reporting Station
Clear Clear  
Wind Chill: 20°   Ceiling: Unl
Heat Index: 30°   Visibility: 10mi
Dew Point: 22°   Wind: 14mph
Humidity: 72%   Direction: 330°NNW
Pressure: 30.34"   Gusts: NA
Location:  39.5872°N, 88.5835°W
Report Text: KMTO 011053Z AUTO 33012KT 10SM CLR M01/M06 A3034 RMK AO2 SLP280 T10111056
Loading
Personal Weather Stations






























Interactive Weather Map
Tropical Storm Tracking
New forecast layout! Learn more

10-Day Weather Forecast

Advertisements
Track Severe Weather on mobile